Terminal Aerodrome Forecast
Issued by NWS

Home | Current Version | Previous Version | Text Only | Print | Product List | Glossary On
Versions: 1 2 3 4 5 6 7 8 9 10 11 12 13 14 15 16 17 18 19 20 21 22 23 24 25 26 27
819
FTUS43 KSGF 291720
TAFBBG
TAF
KBBG 291720Z 2918/3018 15011G20KT 6SM -SHRA SCT015 OVC035
      TEMPO 2918/2921 2SM TSRA BR OVC015CB
     FM292100 16010G20KT 4SM -TSRA BR OVC015CB
      TEMPO 2921/2924 2SM TSRA BR OVC007CB
     FM300100 15009KT 3SM -TSRA BR OVC025CB
     FM300500 14009KT 3SM -TSRA BR OVC015CB
     FM301100 19008KT 6SM -SHRA VCTS OVC010CB
     FM301500 19015G22KT P6SM OVC025=

USA.gov is the U.S. government's official web portal to all federal, state and local government web resources and services.